Detall de PIREP

Printer-friendly versionPDF version

[2013/05/30 08:53:00]
Flight IATA:CT3232
Pilot Number:042
Company ICAO:CAT
Aircraft Type:B738/F
PAX:128
Departing Airport: LEPA
Destination Airport: LEMD
Alternate Airport:LEMG
Online: VATSIM
Route:EPAMA UN733 PRADO
Flight Level:F290
No Slew and time accel
No pause
Crash detect
Detect pilot in Cockpit between each 30 and 45 minutes
08:53 Zero fuel Weight: 115600 Lbs, Fuel Weight: 46056 Lbs
08:53 VATSIM:LEPA 300830Z 33010KT 250V360 9999 FEW020 SCT068 17/09 Q1013 NOSIG
08:53 VATSIM:LEMD 300830Z 13003KT 9999 FEW045 12/05 Q1019 NOSIG
08:54 VOICE CATALONIAN/ROUTE IATA CT322
09:07 Parking Brakes off
09:17 Take-off
09:17 Take off Weight: 160769 Lbs
09:17 Wind: 229º @ 008 Knots Heading: 238º
09:17 POS N39º 32´ 59´´ E002º 42´ 59´´
09:17 Gear Up: 181 Knots
09:17 Flaps:5 at 181 Knots
09:17 Flaps:4 at 178 Knots
09:17 Flaps:3 at 190 Knots
09:18 Flaps:2 at 192 Knots
09:18 Flaps:1 at 261 Knots
09:19 Flaps:0 at 256 Knots
09:32 Wind:301º@053 Knots Heading: 269º Ground Speed: 412 Knots Altitude 27112 ft
09:33 TOC
09:33 Fuel Weight: 41561 Lb
09:47 Wind:302º@051 Knots Heading: 299º Ground Speed: 412 Knots Altitude 29055 ft
09:52 TOD
09:52 Fuel Weight: 39443 Lb
10:02 Wind:299º@008 Knots Heading: 269º Ground Speed: 326 Knots Altitude 8280 ft
10:07 Gear Down: 243 Knots
10:07 Flaps:2 at 243 Knots
10:07 Flaps:3 at 242 Knots
10:07 Flaps:4 at 223 Knots
10:08 Flaps:5 at 162 Knots
10:08 Flaps:6 at 161 Knots
10:08 Flaps:7 at 158 Knots
10:08 Flaps:8 at 153 Knots
10:09 TouchDown:Rate -166 ft/min Speed: 133 Knots
10:10 VATSIM:LEMD 301000Z 35005KT 260V070 9999 SCT045 15/03 Q1019 NOSIG
10:10 Land
10:10 Wind:241º@011 Knots
10:10 Heading: 326º
10:10 Flight Duration: 00:53
10:10 Landing Weight: 154236 Lbs
10:10 POS N40º 28´ 58´´ W003º 32´ 46´´
10:19 Parking brakes on
10:19 Block to Block Duration: 01:12
10:19 Final Fuel: 37669 Lbls
10:19 Spent Fuel: 8386 Lbls
10:19 Flight Length: 309 NM
10:19 TOD Land Length: 89 NM

Exportar CSV

Powered by Drupal - Modified by Danger4k